Time;durP1;ratioP1;P1;durP2;ratioP2;P2;SDS_P1;SDS_P2;PMS_P1;PMS_P2;Temp;Humidity;BMP_temperature;BMP_pressure;BME280_temperature;BME280_humidity;BME280_pressure;Samples;Min_cycle;Max_cycle;Signal;HPM_P1;HPM_P2
2022/07/20 00:01:32;;;;;;;13.60;5.67;;;19.80;76.50;;;;;;5039344;28;20945;-48
2022/07/20 00:03:59;;;;;;;18.03;7.23;;;19.70;75.30;;;;;;5037900;28;20550;-48
2022/07/20 00:06:26;;;;;;;10.93;6.17;;;19.80;75.80;;;;;;5032032;28;20533;-48
2022/07/20 00:11:36;;;;;;;20.03;5.67;;;19.90;76.00;;;;;;5004309;28;21005;-48
2022/07/20 00:14:05;;;;;;;20.27;6.30;;;19.80;75.00;;;;;;5047827;28;21008;-48
2022/07/20 00:16:34;;;;;;;11.67;6.07;;;19.90;74.90;;;;;;5036596;28;20480;-48
2022/07/20 00:19:01;;;;;;;10.60;5.90;;;19.90;75.70;;;;;;5036205;28;20490;-48
2022/07/20 00:21:27;;;;;;;13.87;6.30;;;19.90;75.40;;;;;;5038673;28;20487;-48
2022/07/20 00:23:54;;;;;;;12.53;5.50;;;19.80;76.40;;;;;;5038003;28;20862;-48
2022/07/20 00:26:21;;;;;;;12.40;6.00;;;19.70;76.60;;;;;;5029897;28;20579;-48
2022/07/20 00:28:50;;;;;;;12.40;5.90;;;19.20;78.40;;;;;;5046792;28;22034;-48
2022/07/20 00:31:18;;;;;;;8.77;5.70;;;19.20;78.90;;;;;;5040203;28;20484;-47
2022/07/20 00:33:46;;;;;;;10.37;5.50;;;19.00;79.10;;;;;;5027206;28;20476;-47
2022/07/20 00:36:13;;;;;;;11.97;5.13;;;18.90;78.40;;;;;;5037594;28;20843;-48
2022/07/20 00:38:40;;;;;;;13.33;6.13;;;18.80;78.70;;;;;;5038443;28;20504;-48
2022/07/20 00:41:07;;;;;;;7.73;6.00;;;18.80;79.60;;;;;;5037952;28;20479;-48
2022/07/20 00:43:56;;;;;;;10.70;5.40;;;18.80;78.40;;;;;;5036980;28;20482;-48
2022/07/20 00:46:24;;;;;;;9.70;6.90;;;18.80;78.70;;;;;;5036055;28;21018;-49
2022/07/20 00:48:50;;;;;;;12.23;5.50;;;18.80;79.20;;;;;;5037171;28;20488;-47
2022/07/20 00:51:17;;;;;;;9.20;5.60;;;18.50;80.10;;;;;;5039521;28;20483;-47
2022/07/20 00:53:46;;;;;;;7.07;5.30;;;18.60;80.30;;;;;;5042423;28;20491;-47
2022/07/20 00:56:13;;;;;;;7.00;4.67;;;18.60;80.10;;;;;;5041415;28;20497;-47
2022/07/20 00:58:39;;;;;;;12.47;6.20;;;18.60;78.90;;;;;;5040894;28;20977;-48
2022/07/20 01:01:06;;;;;;;13.77;6.23;;;18.70;78.80;;;;;;5045002;28;20797;-48
2022/07/20 01:03:34;;;;;;;15.10;5.60;;;18.70;79.50;;;;;;5042139;28;20485;-48
2022/07/20 01:06:01;;;;;;;9.50;5.50;;;18.70;78.40;;;;;;5040559;28;20483;-47
2022/07/20 01:08:29;;;;;;;7.70;4.93;;;18.70;78.70;;;;;;5040899;28;20498;-47
2022/07/20 01:10:57;;;;;;;8.33;5.10;;;18.60;80.10;;;;;;5041415;28;20474;-48
2022/07/20 01:13:24;;;;;;;11.53;6.90;;;18.40;81.30;;;;;;5041924;28;20484;-48
2022/07/20 01:15:50;;;;;;;6.33;5.20;;;18.30;81.30;;;;;;5039147;28;21008;-48
2022/07/20 01:18:17;;;;;;;10.57;5.93;;;18.20;81.50;;;;;;5041707;28;20494;-48
2022/07/20 01:20:47;;;;;;;7.43;5.77;;;18.20;80.80;;;;;;5041861;28;20476;-47
2022/07/20 01:23:16;;;;;;;7.83;5.87;;;18.30;81.20;;;;;;5041829;28;20482;-47
2022/07/20 01:25:43;;;;;;;6.80;5.10;;;18.50;81.50;;;;;;5039311;28;20997;-48
2022/07/20 01:28:14;;;;;;;7.37;5.00;;;18.60;79.30;;;;;;5041687;28;20486;-48
2022/07/20 01:30:41;;;;;;;9.37;5.40;;;18.70;79.00;;;;;;5041029;28;20967;-48
2022/07/20 01:33:09;;;;;;;9.90;5.60;;;18.60;80.20;;;;;;5040091;28;20480;-48
2022/07/20 01:35:35;;;;;;;12.07;5.63;;;18.70;79.50;;;;;;5038491;28;20484;-48
2022/07/20 01:38:02;;;;;;;9.37;5.33;;;18.60;80.10;;;;;;5040585;28;20930;-48
2022/07/20 01:40:30;;;;;;;10.27;5.70;;;18.60;79.50;;;;;;5041685;28;20487;-48
2022/07/20 01:42:57;;;;;;;9.47;5.47;;;18.50;80.00;;;;;;5040135;28;20492;-48
2022/07/20 01:45:24;;;;;;;10.07;5.50;;;18.50;79.60;;;;;;5041132;28;20478;-48
2022/07/20 01:47:50;;;;;;;8.90;5.63;;;18.50;80.00;;;;;;5038683;28;20488;-49
2022/07/20 01:50:17;;;;;;;8.40;4.93;;;18.50;80.00;;;;;;5042082;28;20495;-47
2022/07/20 01:52:44;;;;;;;5.27;4.73;;;18.50;79.80;;;;;;5038151;28;20472;-48
2022/07/20 01:55:11;;;;;;;6.80;5.20;;;18.50;80.50;;;;;;5040869;28;20476;-47
2022/07/20 01:57:39;;;;;;;6.57;5.00;;;18.50;80.30;;;;;;5039053;28;20487;-48
2022/07/20 02:00:07;;;;;;;11.63;5.33;;;18.50;80.10;;;;;;5040100;28;20541;-48
2022/07/20 02:02:33;;;;;;;6.20;5.30;;;18.50;80.10;;;;;;5038401;28;20484;-48
2022/07/20 02:05:00;;;;;;;7.90;5.20;;;18.50;81.30;;;;;;5041242;28;20472;-48
2022/07/20 02:07:27;;;;;;;10.53;5.30;;;18.50;82.40;;;;;;5040826;28;20497;-48
2022/07/20 02:09:53;;;;;;;6.30;5.60;;;18.20;83.40;;;;;;5037119;28;20487;-48
2022/07/20 02:12:20;;;;;;;8.30;5.70;;;18.20;83.80;;;;;;5040805;28;20475;-48
2022/07/20 02:14:48;;;;;;;6.87;5.17;;;18.30;82.50;;;;;;5039930;28;20479;-48
2022/07/20 02:17:15;;;;;;;6.50;4.87;;;18.30;81.20;;;;;;5038781;28;20490;-48
2022/07/20 02:19:42;;;;;;;10.30;5.70;;;18.30;81.00;;;;;;5034360;28;20486;-48
2022/07/20 02:22:08;;;;;;;6.17;5.43;;;18.30;80.80;;;;;;5041377;28;20492;-48
2022/07/20 02:24:35;;;;;;;7.23;5.30;;;18.30;81.00;;;;;;5040018;28;20830;-48
2022/07/20 02:27:02;;;;;;;6.43;4.87;;;18.40;80.50;;;;;;5039091;28;20480;-48
2022/07/20 02:29:29;;;;;;;7.00;5.03;;;18.40;80.20;;;;;;5039737;28;20482;-49
2022/07/20 02:31:57;;;;;;;6.30;4.83;;;18.30;80.80;;;;;;5039882;28;20481;-48
2022/07/20 02:34:23;;;;;;;7.20;5.00;;;17.90;85.30;;;;;;5041006;28;20490;-48
2022/07/20 02:36:50;;;;;;;7.57;5.53;;;17.90;85.30;;;;;;5038792;28;20481;-48
2022/07/20 02:39:17;;;;;;;5.17;4.60;;;18.00;83.60;;;;;;5040448;28;20476;-48
2022/07/20 02:41:43;;;;;;;7.60;5.00;;;18.00;83.10;;;;;;5039993;28;21075;-48
2022/07/20 02:44:10;;;;;;;7.83;5.37;;;18.10;83.60;;;;;;5040423;28;20859;-48
2022/07/20 02:46:38;;;;;;;5.53;5.03;;;18.10;83.80;;;;;;5040942;28;20492;-48
2022/07/20 02:49:07;;;;;;;6.73;4.77;;;18.20;82.60;;;;;;5038751;28;20512;-47
2022/07/20 02:51:34;;;;;;;7.90;5.30;;;18.20;83.40;;;;;;5038748;28;20561;-48
2022/07/20 02:54:01;;;;;;;7.20;5.47;;;18.10;83.60;;;;;;5039358;28;20486;-48
2022/07/20 02:56:27;;;;;;;9.10;5.73;;;18.10;83.50;;;;;;5039033;28;20491;-48
2022/07/20 02:58:54;;;;;;;18.10;5.40;;;18.20;83.40;;;;;;5040072;28;20475;-48
2022/07/20 03:01:21;;;;;;;7.67;5.30;;;18.30;83.10;;;;;;5040922;28;20471;-47
2022/07/20 03:03:47;;;;;;;6.30;5.17;;;18.20;84.70;;;;;;5015209;28;20486;-47
2022/07/20 03:06:16;;;;;;;8.90;6.30;;;18.00;83.50;;;;;;5037795;28;20482;-47
2022/07/20 03:08:43;;;;;;;12.80;5.93;;;18.00;84.30;;;;;;5017014;28;20546;-48
2022/07/20 03:11:10;;;;;;;11.93;5.63;;;18.10;83.80;;;;;;5038159;28;20481;-47
2022/07/20 03:13:36;;;;;;;12.93;5.43;;;18.10;84.30;;;;;;5039086;28;20997;-47
2022/07/20 03:16:03;;;;;;;7.03;4.67;;;18.10;84.10;;;;;;5020910;28;20879;-47
2022/07/20 03:18:30;;;;;;;9.93;6.13;;;18.10;84.00;;;;;;5035721;28;20487;-47
2022/07/20 03:20:57;;;;;;;10.27;5.37;;;18.10;83.10;;;;;;5033516;28;20488;-47
2022/07/20 03:23:25;;;;;;;5.53;4.93;;;18.20;83.30;;;;;;5032902;28;20581;-47
2022/07/20 03:25:52;;;;;;;8.80;5.10;;;18.20;83.20;;;;;;5025646;28;20491;-47
2022/07/20 03:28:19;;;;;;;10.93;7.00;;;18.20;84.50;;;;;;5014692;28;20495;-47
2022/07/20 03:30:45;;;;;;;6.63;5.60;;;18.10;84.60;;;;;;4973535;28;20519;-48
2022/07/20 03:33:12;;;;;;;7.60;5.87;;;18.10;84.40;;;;;;5007153;28;20497;-47
2022/07/20 03:35:39;;;;;;;8.50;6.13;;;18.00;83.80;;;;;;5035853;28;20486;-47
2022/07/20 03:38:05;;;;;;;10.10;5.40;;;17.90;84.60;;;;;;5010574;28;20490;-47
2022/07/20 03:40:34;;;;;;;6.30;4.93;;;18.00;84.30;;;;;;4992675;28;20926;-48
2022/07/20 03:43:00;;;;;;;22.73;5.90;;;18.00;83.70;;;;;;5051790;28;20491;-47
2022/07/20 03:45:27;;;;;;;6.50;5.80;;;18.10;83.10;;;;;;5024498;28;20484;-47
2022/07/20 03:47:54;;;;;;;11.27;5.27;;;18.20;83.40;;;;;;5013314;28;20490;-48
2022/07/20 03:50:20;;;;;;;8.10;6.50;;;18.00;84.40;;;;;;5012107;28;20486;-48
2022/07/20 03:52:47;;;;;;;9.83;6.63;;;17.90;85.90;;;;;;5048219;28;20471;-47
2022/07/20 03:55:14;;;;;;;5.80;4.97;;;17.80;87.50;;;;;;5049098;28;20469;-47
2022/07/20 03:57:42;;;;;;;6.20;4.93;;;17.70;86.60;;;;;;5036435;28;20483;-48
2022/07/20 04:00:10;;;;;;;5.10;4.70;;;17.80;86.40;;;;;;5003466;28;20846;-47
2022/07/20 04:02:37;;;;;;;6.20;4.83;;;17.70;85.50;;;;;;5018425;28;20606;-50
2022/07/20 04:05:04;;;;;;;7.03;5.00;;;17.70;85.80;;;;;;5025584;28;20503;-47
2022/07/20 04:07:31;;;;;;;5.77;4.80;;;17.70;86.50;;;;;;5041155;28;20493;-48
2022/07/20 04:09:58;;;;;;;8.03;6.10;;;17.60;86.20;;;;;;5024630;28;20482;-48
2022/07/20 04:12:25;;;;;;;11.43;5.50;;;17.70;85.10;;;;;;5031896;28;20482;-47
2022/07/20 04:14:54;;;;;;;8.67;5.57;;;17.80;86.50;;;;;;5011610;28;20471;-47
2022/07/20 04:17:22;;;;;;;9.50;5.00;;;17.70;86.00;;;;;;5021400;28;20483;-47
2022/07/20 04:19:50;;;;;;;7.70;5.43;;;17.80;86.30;;;;;;5031768;28;20837;-47
2022/07/20 04:22:17;;;;;;;6.80;5.23;;;17.80;86.60;;;;;;5036799;28;20458;-47
2022/07/20 04:24:44;;;;;;;8.97;5.80;;;17.90;85.80;;;;;;5038477;28;20476;-47
2022/07/20 04:27:10;;;;;;;7.30;4.97;;;18.20;85.00;;;;;;5042336;28;20491;-48
2022/07/20 04:29:37;;;;;;;6.80;5.43;;;18.40;84.70;;;;;;5042024;28;20484;-48
2022/07/20 04:32:06;;;;;;;8.93;5.43;;;18.30;85.10;;;;;;5042046;28;20491;-48
2022/07/20 04:34:33;;;;;;;10.13;5.90;;;18.50;85.30;;;;;;5044944;28;20854;-49
2022/07/20 04:37:00;;;;;;;11.57;7.67;;;18.60;84.60;;;;;;5039372;28;20483;-48
2022/07/20 04:39:27;;;;;;;9.30;6.00;;;18.60;84.70;;;;;;5043011;28;20881;-48
2022/07/20 04:41:54;;;;;;;17.93;5.43;;;18.80;83.90;;;;;;5042639;28;20588;-48
2022/07/20 04:44:20;;;;;;;11.43;5.63;;;18.80;84.90;;;;;;5046011;28;21009;-48
2022/07/20 04:46:47;;;;;;;7.30;5.80;;;19.00;83.60;;;;;;5043551;28;20510;-48
2022/07/20 04:49:15;;;;;;;10.03;5.70;;;19.10;83.80;;;;;;5042668;28;20781;-48
2022/07/20 04:51:43;;;;;;;6.07;5.47;;;19.20;84.40;;;;;;5041484;28;20493;-48
2022/07/20 04:54:09;;;;;;;6.00;5.40;;;19.30;84.70;;;;;;5041673;28;20990;-48
2022/07/20 04:56:36;;;;;;;7.30;5.37;;;19.20;84.60;;;;;;5040394;28;20579;-48
2022/07/20 04:59:03;;;;;;;16.30;5.37;;;19.20;85.40;;;;;;5042049;28;20487;-48
2022/07/20 05:01:30;;;;;;;6.00;5.20;;;19.20;85.20;;;;;;5043265;28;20475;-48
2022/07/20 05:03:57;;;;;;;12.20;5.60;;;19.20;85.10;;;;;;5041281;28;20509;-49
2022/07/20 05:06:25;;;;;;;8.10;4.97;;;19.30;84.10;;;;;;5041020;28;20468;-48
2022/07/20 05:08:52;;;;;;;6.27;5.67;;;19.30;84.50;;;;;;5040978;28;21145;-48
2022/07/20 05:11:19;;;;;;;15.67;5.13;;;19.30;86.20;;;;;;5041116;28;20478;-48
2022/07/20 05:13:45;;;;;;;8.57;5.90;;;19.30;86.60;;;;;;5040628;28;20491;-48
2022/07/20 05:16:12;;;;;;;7.27;5.70;;;19.30;87.20;;;;;;5041868;28;20489;-51
2022/07/20 05:18:39;;;;;;;6.57;5.93;;;19.20;87.50;;;;;;5042218;28;20487;-48
2022/07/20 05:21:06;;;;;;;6.27;5.60;;;19.20;87.00;;;;;;5040804;28;20475;-48
2022/07/20 05:23:34;;;;;;;6.67;5.70;;;19.20;87.00;;;;;;5042110;28;20486;-48
2022/07/20 05:26:01;;;;;;;9.77;5.70;;;19.30;86.40;;;;;;5039363;28;21063;-49
2022/07/20 05:28:28;;;;;;;12.83;6.27;;;19.40;86.40;;;;;;5041951;28;20494;-48
2022/07/20 05:30:55;;;;;;;7.07;4.97;;;19.50;86.80;;;;;;5026730;28;21037;-48
2022/07/20 05:33:21;;;;;;;11.60;6.63;;;19.80;84.20;;;;;;5037726;28;20486;-48
2022/07/20 05:35:50;;;;;;;10.27;7.17;;;20.00;84.40;;;;;;5035627;28;20487;-48
2022/07/20 05:38:17;;;;;;;8.73;5.43;;;20.00;85.20;;;;;;5038630;28;20612;-48
2022/07/20 05:40:45;;;;;;;8.90;5.80;;;20.10;85.90;;;;;;5042801;28;20499;-48
2022/07/20 05:43:12;;;;;;;10.40;6.30;;;20.30;85.30;;;;;;5041303;28;20989;-48
2022/07/20 05:45:39;;;;;;;6.77;5.63;;;20.40;85.00;;;;;;5039304;28;20474;-48
2022/07/20 05:48:10;;;;;;;9.20;6.77;;;20.50;85.40;;;;;;5040989;28;20756;-48
2022/07/20 05:50:37;;;;;;;13.73;6.47;;;20.70;83.40;;;;;;5041149;28;20479;-48
2022/07/20 05:53:04;;;;;;;8.20;6.13;;;21.10;81.80;;;;;;5038737;28;20476;-48
2022/07/20 05:55:31;;;;;;;7.50;5.27;;;21.20;82.10;;;;;;5039773;28;20921;-48
2022/07/20 05:57:59;;;;;;;13.00;6.77;;;21.40;82.80;;;;;;5032735;28;21003;-48
2022/07/20 06:00:26;;;;;;;6.53;5.90;;;21.70;82.50;;;;;;5038443;28;21055;-48
2022/07/20 06:02:52;;;;;;;7.73;5.70;;;21.80;80.10;;;;;;5038745;28;20495;-48
2022/07/20 06:05:19;;;;;;;16.03;7.00;;;22.00;80.00;;;;;;5036260;28;20483;-48
2022/07/20 06:07:46;;;;;;;11.13;5.90;;;22.30;79.80;;;;;;5036715;28;20495;-49
2022/07/20 06:10:13;;;;;;;12.03;5.50;;;22.30;80.70;;;;;;5039189;28;20498;-49
2022/07/20 06:12:40;;;;;;;7.03;6.27;;;22.60;78.90;;;;;;5041114;28;20551;-49
2022/07/20 06:15:09;;;;;;;6.97;6.00;;;22.80;80.50;;;;;;5039677;28;21001;-49
2022/07/20 06:17:36;;;;;;;7.37;5.97;;;23.10;79.30;;;;;;5040269;28;20487;-49
2022/07/20 06:20:07;;;;;;;10.67;5.87;;;23.60;78.50;;;;;;5039515;28;20966;-50
2022/07/20 06:22:34;;;;;;;9.20;5.83;;;23.90;77.50;;;;;;5037435;28;20475;-50
2022/07/20 06:25:01;;;;;;;12.40;5.90;;;24.00;78.20;;;;;;5039743;28;20468;-49
2022/07/20 06:27:28;;;;;;;11.10;5.50;;;24.70;76.60;;;;;;5039886;28;20471;-49
2022/07/20 06:29:54;;;;;;;9.40;5.77;;;24.80;76.90;;;;;;5039869;28;20474;-50
2022/07/20 06:32:23;;;;;;;10.50;6.00;;;25.00;77.00;;;;;;5043331;28;20484;-50
2022/07/20 06:34:49;;;;;;;11.87;8.20;;;25.30;75.80;;;;;;5039557;28;20848;-51
2022/07/20 06:37:16;;;;;;;11.60;9.10;;;25.60;75.70;;;;;;5038183;28;20487;-49
2022/07/20 06:39:43;;;;;;;20.40;10.57;;;25.80;75.00;;;;;;5036986;28;20488;-49
2022/07/20 06:42:10;;;;;;;14.60;10.77;;;26.00;75.10;;;;;;5038815;28;20855;-49
2022/07/20 06:44:37;;;;;;;15.70;10.50;;;26.20;75.30;;;;;;5040891;28;21077;-50
2022/07/20 06:47:04;;;;;;;16.53;12.27;;;26.70;74.80;;;;;;5033918;28;20480;-50
2022/07/20 06:49:33;;;;;;;16.20;14.27;;;26.80;72.60;;;;;;5041337;28;20468;-48
2022/07/20 06:51:59;;;;;;;15.53;13.73;;;27.00;72.40;;;;;;5039792;28;20471;-48
2022/07/20 06:54:27;;;;;;;19.70;14.30;;;27.10;71.20;;;;;;5041469;28;20498;-49
2022/07/20 06:56:54;;;;;;;21.87;13.83;;;27.10;69.80;;;;;;5040376;28;20467;-49
2022/07/20 06:59:21;;;;;;;16.10;13.70;;;27.20;69.10;;;;;;5039328;28;20479;-48
2022/07/20 07:01:48;;;;;;;16.07;12.27;;;27.40;68.60;;;;;;5038852;28;20491;-49
2022/07/20 07:04:15;;;;;;;16.87;12.53;;;27.40;68.90;;;;;;5036412;28;20487;-49
2022/07/20 07:06:43;;;;;;;12.43;11.03;;;27.50;68.70;;;;;;5037546;28;20468;-49
2022/07/20 07:09:10;;;;;;;11.27;10.17;;;27.60;68.70;;;;;;5042431;28;20487;-50
2022/07/20 07:11:37;;;;;;;19.13;12.73;;;27.70;67.20;;;;;;5040257;28;20575;-50
2022/07/20 07:14:04;;;;;;;17.13;12.00;;;27.80;67.50;;;;;;5037428;28;20824;-49
2022/07/20 07:16:31;;;;;;;14.57;11.67;;;27.90;67.90;;;;;;5036471;28;20472;-51
2022/07/20 07:18:58;;;;;;;19.10;12.30;;;27.90;68.30;;;;;;5040572;28;20506;-49
2022/07/20 07:21:25;;;;;;;18.60;13.37;;;28.00;67.40;;;;;;5033306;28;20463;-50
2022/07/20 07:23:53;;;;;;;13.10;11.70;;;28.20;66.80;;;;;;5018643;28;20491;-49
2022/07/20 07:26:21;;;;;;;16.77;11.20;;;28.20;66.80;;;;;;5025448;28;20487;-49
2022/07/20 07:28:48;;;;;;;18.30;10.43;;;28.30;66.20;;;;;;5023574;28;20483;-50
2022/07/20 07:31:17;;;;;;;20.93;11.70;;;28.40;66.50;;;;;;5037815;28;21976;-49
2022/07/20 07:33:44;;;;;;;12.30;10.20;;;28.60;65.90;;;;;;5044145;28;20478;-50
2022/07/20 07:36:11;;;;;;;17.80;11.40;;;29.00;65.40;;;;;;5032192;28;20949;-51
2022/07/20 07:38:38;;;;;;;10.83;9.50;;;29.10;65.70;;;;;;5044647;28;20483;-51
2022/07/20 07:41:07;;;;;;;12.37;11.07;;;29.30;64.50;;;;;;5042741;28;20496;-50
2022/07/20 07:43:33;;;;;;;17.40;11.07;;;29.40;65.20;;;;;;5046263;28;21186;-50
2022/07/20 07:46:00;;;;;;;17.83;11.67;;;29.60;63.40;;;;;;5040892;28;20482;-50
2022/07/20 07:48:27;;;;;;;14.90;10.30;;;;;;;;;;5045743;28;20475;-51
2022/07/20 07:50:54;;;;;;;13.37;10.10;;;29.90;61.60;;;;;;5044145;28;20475;-51
2022/07/20 07:53:20;;;;;;;14.50;11.53;;;30.10;61.90;;;;;;5043579;28;20648;-50
2022/07/20 07:55:47;;;;;;;12.87;11.43;;;30.00;59.90;;;;;;5042426;28;20492;-50
2022/07/20 07:58:16;;;;;;;11.60;10.30;;;30.00;59.40;;;;;;5045571;28;20487;-50
2022/07/20 08:00:42;;;;;;;11.33;9.53;;;30.10;59.50;;;;;;5043947;28;21012;-50
2022/07/20 08:03:10;;;;;;;13.83;10.50;;;;;;;;;;5044299;28;20470;-50
2022/07/20 08:05:37;;;;;;;13.87;10.97;;;30.30;59.00;;;;;;5043889;28;21455;-50
2022/07/20 08:08:08;;;;;;;14.47;10.23;;;30.50;60.20;;;;;;5044099;28;20847;-50
2022/07/20 08:10:35;;;;;;;18.80;10.67;;;30.60;58.90;;;;;;5033739;28;20926;-48
2022/07/20 08:13:03;;;;;;;14.73;10.70;;;30.50;59.10;;;;;;5043623;28;20479;-51
2022/07/20 08:15:31;;;;;;;13.33;10.57;;;30.60;59.60;;;;;;5056210;28;21015;-50
2022/07/20 08:17:58;;;;;;;11.17;10.00;;;30.80;59.40;;;;;;5052935;28;20489;-50
2022/07/20 08:20:25;;;;;;;12.17;10.87;;;31.00;58.50;;;;;;5042871;28;20480;-51
2022/07/20 08:22:53;;;;;;;15.63;11.37;;;31.00;59.60;;;;;;5044911;28;20481;-51
2022/07/20 08:25:20;;;;;;;11.30;10.13;;;31.20;58.80;;;;;;5067748;28;20480;-51
2022/07/20 08:27:47;;;;;;;15.30;10.83;;;31.40;57.20;;;;;;5055493;28;20475;-51
2022/07/20 08:30:14;;;;;;;14.70;9.63;;;31.40;57.50;;;;;;5042058;28;20494;-51
2022/07/20 08:32:42;;;;;;;13.27;9.70;;;31.60;58.00;;;;;;5052946;28;20978;-51
2022/07/20 08:35:10;;;;;;;12.10;10.77;;;31.60;58.20;;;;;;5058817;28;20544;-51
2022/07/20 08:37:37;;;;;;;13.67;10.27;;;31.70;57.00;;;;;;5041238;28;21561;-49
2022/07/20 08:40:05;;;;;;;16.67;11.70;;;31.70;57.20;;;;;;5043196;28;20486;-50
2022/07/20 08:42:32;;;;;;;20.23;9.90;;;31.90;56.90;;;;;;5046084;28;20483;-51
2022/07/20 08:44:58;;;;;;;10.43;8.70;;;32.10;55.60;;;;;;5040364;28;20487;-53
2022/07/20 08:47:30;;;;;;;12.70;9.10;;;32.20;56.40;;;;;;5065447;28;20482;-52
2022/07/20 08:49:59;;;;;;;10.07;9.03;;;32.70;55.80;;;;;;5042741;28;20592;-51
2022/07/20 08:52:26;;;;;;;14.57;10.43;;;32.80;54.70;;;;;;5045195;28;20479;-52
2022/07/20 08:54:52;;;;;;;11.07;9.43;;;33.00;53.70;;;;;;5042820;28;20479;-51
2022/07/20 08:57:19;;;;;;;11.93;8.67;;;32.70;53.80;;;;;;5039501;28;20486;-52
2022/07/20 08:59:47;;;;;;;17.50;9.73;;;32.70;54.90;;;;;;5042221;28;20478;-50
2022/07/20 09:02:14;;;;;;;16.13;9.53;;;32.70;53.90;;;;;;5044923;28;20980;-52
2022/07/20 09:04:51;;;;;;;9.90;8.90;;;32.90;55.90;;;;;;5041620;28;20483;-52
2022/07/20 09:07:39;;;;;;;13.30;9.77;;;33.20;54.60;;;;;;5024906;28;20489;-52
2022/07/20 09:10:10;;;;;;;13.60;9.27;;;33.30;55.40;;;;;;5055657;28;21048;-52
2022/07/20 09:12:54;;;;;;;10.73;8.97;;;33.80;53.90;;;;;;5042895;28;20578;-52
2022/07/20 09:15:36;;;;;;;9.77;8.77;;;33.80;51.30;;;;;;5059110;28;21393;-52
2022/07/20 09:18:17;;;;;;;10.93;9.43;;;33.50;51.90;;;;;;5047313;28;20479;-52
2022/07/20 09:20:46;;;;;;;11.90;9.37;;;33.40;52.40;;;;;;5037744;28;20478;-52
2022/07/20 09:23:16;;;;;;;12.30;8.70;;;33.60;54.40;;;;;;5045134;28;21214;-52
2022/07/20 09:25:55;;;;;;;9.60;8.20;;;33.70;54.70;;;;;;5028007;28;20813;-52
2022/07/20 09:28:22;;;;;;;14.07;9.90;;;34.10;51.90;;;;;;5058353;28;20477;-52
2022/07/20 09:30:51;;;;;;;9.17;8.27;;;34.10;52.90;;;;;;5051388;28;20981;-53
2022/07/20 09:33:25;;;;;;;10.00;8.53;;;34.50;52.10;;;;;;5048204;28;20659;-52
2022/07/20 09:35:51;;;;;;;10.87;8.97;;;34.60;52.80;;;;;;5044121;28;20613;-53
2022/07/20 09:38:20;;;;;;;15.17;8.77;;;34.90;53.60;;;;;;5046582;28;20482;-52
2022/07/20 09:40:47;;;;;;;17.23;9.13;;;34.90;51.20;;;;;;5045993;28;20459;-51
2022/07/20 09:43:28;;;;;;;11.10;8.87;;;34.90;51.20;;;;;;5046034;28;20479;-51
2022/07/20 09:45:56;;;;;;;12.90;8.50;;;34.80;52.60;;;;;;5041118;28;20486;-53
2022/07/20 09:48:24;;;;;;;13.53;8.73;;;34.80;50.20;;;;;;5045688;28;20464;-51
2022/07/20 09:50:51;;;;;;;9.23;8.23;;;34.80;51.40;;;;;;5045533;28;20539;-52
2022/07/20 09:53:19;;;;;;;9.10;8.30;;;34.90;52.20;;;;;;5046144;28;20518;-53
2022/07/20 09:55:48;;;;;;;9.90;7.93;;;35.10;51.90;;;;;;5040975;28;20480;-52
2022/07/20 09:58:16;;;;;;;12.40;8.03;;;35.00;50.50;;;;;;5047886;28;21503;-50
2022/07/20 10:00:43;;;;;;;14.43;8.73;;;35.10;50.00;;;;;;5043815;28;20487;-51
2022/07/20 10:03:12;;;;;;;9.13;8.30;;;34.60;49.40;;;;;;5063372;28;21054;-51
2022/07/20 10:05:40;;;;;;;16.90;7.70;;;34.50;49.70;;;;;;5039718;28;21109;-51
2022/07/20 10:08:07;;;;;;;9.40;8.10;;;34.60;52.60;;;;;;5040179;28;20852;-52
2022/07/20 10:10:35;;;;;;;11.90;8.90;;;34.80;49.70;;;;;;5045987;28;20457;-52
2022/07/20 10:13:02;;;;;;;10.70;8.77;;;34.90;52.10;;;;;;5042028;28;20487;-52
2022/07/20 10:15:41;;;;;;;9.60;8.57;;;35.30;52.10;;;;;;5042466;28;20530;-52
2022/07/20 10:18:10;;;;;;;10.43;9.00;;;35.40;52.20;;;;;;5043836;28;20887;-51
2022/07/20 10:20:38;;;;;;;16.97;7.30;;;35.40;50.00;;;;;;5044666;28;20461;-51
2022/07/20 10:23:31;;;;;;;15.10;10.97;;;35.50;50.70;;;;;;5044702;28;20488;-52
2022/07/20 10:26:00;;;;;;;15.40;11.93;;;35.40;49.70;;;;;;5029660;28;20995;-51
2022/07/20 10:28:29;;;;;;;13.07;11.43;;;35.10;49.50;;;;;;5045894;28;20477;-53
2022/07/20 10:30:58;;;;;;;17.20;12.53;;;35.20;50.60;;;;;;5035702;28;20586;-53
2022/07/20 10:33:26;;;;;;;16.20;12.40;;;35.00;50.60;;;;;;5069608;28;20493;-51
2022/07/20 10:36:41;;;;;;;18.20;11.70;;;35.10;50.60;;;;;;5040815;28;20457;-51
2022/07/20 10:38:41;;;;;;;19.67;14.07;;;35.00;51.50;;;;;;5062096;28;20455;-50
2022/07/20 10:44:29;;;;;;;20.63;16.73;;;35.10;52.90;;;;;;5035311;28;20481;-52
2022/07/20 10:46:56;;;;;;;19.47;17.07;;;35.40;55.20;;;;;;5040541;28;20957;-51
2022/07/20 10:50:01;;;;;;;21.77;17.90;;;35.50;55.20;;;;;;5037943;28;20563;-52
2022/07/20 10:52:32;;;;;;;24.67;19.50;;;35.60;55.40;;;;;;5001257;28;20486;-52
2022/07/20 10:54:59;;;;;;;22.33;20.00;;;35.50;55.60;;;;;;5048851;28;20527;-55
2022/07/20 10:57:28;;;;;;;24.17;21.07;;;35.30;56.00;;;;;;5051640;28;20474;-50
2022/07/20 11:00:08;;;;;;;23.10;20.60;;;34.90;55.90;;;;;;5042465;28;20944;-52
2022/07/20 11:02:35;;;;;;;23.50;20.47;;;34.70;57.00;;;;;;5043065;28;20458;-51
2022/07/20 11:05:03;;;;;;;24.63;22.00;;;34.40;57.90;;;;;;5041142;28;20475;-51
2022/07/20 11:07:31;;;;;;;24.03;20.60;;;34.40;59.00;;;;;;5032914;28;20865;-52
2022/07/20 11:09:58;;;;;;;23.47;20.93;;;34.50;58.60;;;;;;5044057;28;21056;-52
2022/07/20 11:12:29;;;;;;;23.47;21.17;;;34.60;58.60;;;;;;5045162;28;20471;-52
2022/07/20 11:14:57;;;;;;;27.10;20.70;;;34.70;58.90;;;;;;5040386;28;21174;-53
2022/07/20 11:17:24;;;;;;;23.07;20.73;;;;;;;;;;5039668;28;20912;-55
2022/07/20 11:19:51;;;;;;;26.27;20.60;;;35.20;57.80;;;;;;5045039;28;20486;-51
2022/07/20 11:22:19;;;;;;;25.53;20.50;;;35.20;57.40;;;;;;5042879;28;20533;-51
2022/07/20 11:24:55;;;;;;;27.00;20.20;;;35.00;56.30;;;;;;5043092;28;20863;-51
2022/07/20 11:27:22;;;;;;;21.17;19.07;;;35.00;57.50;;;;;;5030339;28;20591;-51
2022/07/20 11:29:52;;;;;;;21.77;18.70;;;35.00;57.40;;;;;;5065111;28;20870;-51
2022/07/20 11:32:20;;;;;;;20.10;18.20;;;35.10;57.30;;;;;;5045102;28;21128;-52
2022/07/20 11:34:48;;;;;;;20.20;17.17;;;35.10;57.00;;;;;;5039146;28;20882;-51
2022/07/20 11:37:17;;;;;;;23.13;17.40;;;35.10;56.70;;;;;;5038904;28;20519;-50
2022/07/20 11:39:45;;;;;;;20.83;16.53;;;35.10;57.10;;;;;;5043266;28;20583;-52
2022/07/20 11:42:13;;;;;;;19.53;15.80;;;34.90;56.60;;;;;;5042773;28;20450;-50
2022/07/20 11:44:40;;;;;;;22.63;17.03;;;35.00;57.10;;;;;;5044270;28;20598;-51
2022/07/20 11:47:09;;;;;;;20.13;16.60;;;34.90;56.40;;;;;;5035427;28;21396;-52
2022/07/20 11:49:36;;;;;;;18.43;15.13;;;35.10;57.20;;;;;;5044768;28;20564;-52
2022/07/20 11:52:05;;;;;;;20.33;15.90;;;35.30;56.40;;;;;;5044063;28;20913;-51
2022/07/20 11:54:37;;;;;;;17.33;15.40;;;35.30;56.30;;;;;;5042069;28;20453;-51
2022/07/20 11:57:06;;;;;;;18.50;16.03;;;35.30;56.40;;;;;;5038475;28;20483;-52
2022/07/20 11:59:32;;;;;;;15.80;14.30;;;35.60;55.60;;;;;;5045290;28;20566;-53
2022/07/20 12:02:01;;;;;;;18.70;15.90;;;35.60;55.70;;;;;;5039507;28;20457;-52
2022/07/20 12:04:33;;;;;;;19.13;15.87;;;35.60;56.20;;;;;;5040641;28;20770;-52
2022/07/20 12:07:00;;;;;;;20.90;16.93;;;35.50;55.00;;;;;;5040086;28;21036;-51
2022/07/20 12:09:35;;;;;;;18.70;16.27;;;35.50;56.00;;;;;;5059548;28;20816;-51
2022/07/20 12:12:04;;;;;;;16.40;13.93;;;35.20;55.10;;;;;;5047276;28;21025;-53
2022/07/20 12:14:33;;;;;;;17.63;15.83;;;35.10;55.20;;;;;;5056572;28;21092;-52
2022/07/20 12:17:17;;;;;;;18.40;14.90;;;35.00;56.40;;;;;;5035923;28;20458;-50
2022/07/20 12:19:47;;;;;;;19.27;15.27;;;35.10;55.80;;;;;;5042389;28;20475;-51
2022/07/20 12:22:17;;;;;;;17.60;15.73;;;35.00;55.40;;;;;;5043123;28;20817;-52
2022/07/20 12:24:51;;;;;;;16.10;14.50;;;34.80;56.70;;;;;;5041458;28;20487;-51
2022/07/20 12:27:18;;;;;;;18.13;15.03;;;34.70;57.20;;;;;;5037224;28;20856;-51
2022/07/20 12:29:45;;;;;;;21.83;15.20;;;34.40;56.30;;;;;;5042618;28;21494;-52
2022/07/20 12:32:15;;;;;;;22.07;15.83;;;33.90;56.50;;;;;;5043421;28;20445;-50
2022/07/20 12:34:54;;;;;;;22.40;16.73;;;33.90;57.00;;;;;;5045746;28;21142;-53
2022/07/20 12:37:22;;;;;;;17.53;14.10;;;33.60;58.00;;;;;;5035258;28;20469;-51
2022/07/20 12:39:53;;;;;;;18.00;15.03;;;33.50;57.60;;;;;;5041596;28;20505;-51
2022/07/20 12:42:23;;;;;;;18.90;15.40;;;33.30;58.80;;;;;;5041012;28;20492;-53
2022/07/20 12:44:58;;;;;;;20.73;15.60;;;33.20;63.80;;;;;;5044429;28;20964;-53
2022/07/20 12:47:25;;;;;;;20.77;15.90;;;33.10;65.40;;;;;;5034570;28;20517;-52
2022/07/20 12:49:53;;;;;;;21.30;15.50;;;33.10;68.10;;;;;;5045413;28;20485;-53